createdAt,value
2023-03-15T00:05:00.653Z,53.45
2023-03-15T00:10:02.127Z,51.21
2023-03-15T00:15:03.740Z,50.69
2023-03-15T00:20:06.764Z,48.67
2023-03-15T00:25:08.649Z,50.18
2023-03-15T00:30:10.655Z,51.05
2023-03-15T00:35:12.947Z,53.55
2023-03-15T00:40:14.534Z,54.09
2023-03-15T00:45:17.360Z,52.60
2023-03-15T00:50:19.216Z,53.74
2023-03-15T00:55:21.541Z,54.72
2023-03-15T01:00:24.969Z,53.21
2023-03-15T01:05:26.684Z,52.41
2023-03-15T01:10:28.145Z,52.21
2023-03-15T01:15:29.644Z,51.60
2023-03-15T01:20:31.100Z,51.67
2023-03-15T01:25:32.580Z,51.60
2023-03-15T01:30:34.212Z,50.55
2023-03-15T01:35:35.701Z,50.73
2023-03-15T01:40:43.906Z,49.55
2023-03-15T01:45:59.966Z,48.17
2023-03-15T01:51:03.332Z,48.35
2023-03-15T01:56:04.914Z,48.02
2023-03-15T02:01:06.385Z,47.86
2023-03-15T02:06:08.363Z,47.53
2023-03-15T02:11:09.848Z,48.60
2023-03-15T02:16:11.526Z,47.91
2023-03-15T02:21:27.562Z,47.68
2023-03-15T02:26:40.750Z,47.39
2023-03-15T02:31:42.279Z,48.23
2023-03-15T02:36:43.760Z,48.91
2023-03-15T02:41:48.240Z,49.20
2023-03-15T02:46:51.135Z,49.55
2023-03-15T02:51:52.607Z,47.83
2023-03-15T02:56:54.067Z,46.28
2023-03-15T03:01:55.530Z,45.86
2023-03-15T03:06:57.037Z,44.77
2023-03-15T03:11:58.512Z,45.03
2023-03-15T03:17:00.048Z,45.47
2023-03-15T03:22:01.541Z,46.32
2023-03-15T03:27:03.023Z,45.42
2023-03-15T03:32:04.528Z,46.03
2023-03-15T03:37:06.025Z,46.00
2023-03-15T03:42:07.639Z,47.01
2023-03-15T03:47:09.113Z,47.11
2023-03-15T03:52:10.580Z,47.82
2023-03-15T03:57:12.069Z,45.55
2023-03-15T04:02:13.635Z,45.32
2023-03-15T04:07:17.035Z,45.10
2023-03-15T04:12:18.521Z,46.01
2023-03-15T04:17:20.039Z,45.94
2023-03-15T04:22:21.503Z,45.50
2023-03-15T04:27:22.984Z,46.81
2023-03-15T04:32:24.561Z,45.30
2023-03-15T04:37:26.086Z,42.70
2023-03-15T04:42:27.548Z,45.98
2023-03-15T04:47:29.004Z,50.08
2023-03-15T04:52:30.459Z,46.59
2023-03-15T04:57:31.939Z,47.00
2023-03-15T05:02:33.853Z,44.89
2023-03-15T05:07:35.474Z,45.05
2023-03-15T05:12:36.951Z,48.83
2023-03-15T05:17:38.470Z,50.27
2023-03-15T05:22:40.755Z,48.79
2023-03-15T05:27:42.317Z,48.80
2023-03-15T05:32:44.773Z,48.57
2023-03-15T05:37:46.393Z,49.24
2023-03-15T05:42:47.855Z,49.27
2023-03-15T05:47:49.323Z,49.97
2023-03-15T05:52:51.852Z,49.91
2023-03-15T05:57:53.328Z,49.22
2023-03-15T06:02:55.838Z,48.84
2023-03-15T06:07:57.366Z,49.03
2023-03-15T06:12:58.841Z,54.92
2023-03-15T06:18:00.314Z,57.87
2023-03-15T06:23:01.817Z,58.39
2023-03-15T06:28:03.284Z,60.02
2023-03-15T06:33:04.765Z,60.05
2023-03-15T06:38:06.333Z,58.22
2023-03-15T06:43:08.205Z,57.57
2023-03-15T06:48:09.662Z,57.36
2023-03-15T06:53:11.144Z,56.59
2023-03-15T06:58:12.665Z,55.21
2023-03-15T07:03:14.339Z,54.18
2023-03-15T07:08:15.812Z,53.15
2023-03-15T07:13:17.481Z,53.26
2023-03-15T07:18:18.955Z,52.60
2023-03-15T07:23:20.420Z,53.40
2023-03-15T07:28:22.251Z,57.07
2023-03-15T07:33:24.169Z,60.48
2023-03-15T07:38:26.930Z,62.88
2023-03-15T07:43:29.335Z,62.95
2023-03-15T07:48:31.079Z,62.81
2023-03-15T07:53:32.978Z,63.88
2023-03-15T07:58:34.494Z,64.46
2023-03-15T08:03:36.274Z,63.64
2023-03-15T08:08:37.730Z,63.84
2023-03-15T08:13:39.449Z,62.89
2023-03-15T08:18:40.974Z,61.54
2023-03-15T08:23:42.551Z,61.21
2023-03-15T08:28:44.216Z,59.38
2023-03-15T08:33:45.835Z,59.21
2023-03-15T08:38:47.295Z,57.37
2023-03-15T08:43:48.755Z,57.17
2023-03-15T08:48:50.259Z,55.90
2023-03-15T08:53:51.952Z,55.44
2023-03-15T08:58:53.426Z,54.12
2023-03-15T09:03:54.931Z,55.22
2023-03-15T09:08:56.426Z,54.32
2023-03-15T09:13:57.895Z,55.91
2023-03-15T09:18:59.381Z,54.97
2023-03-15T09:24:00.831Z,53.79
2023-03-15T09:29:02.340Z,52.58
2023-03-15T09:34:03.805Z,52.13
2023-03-15T09:39:05.294Z,50.13
2023-03-15T09:44:12.566Z,52.25
2023-03-15T09:49:25.933Z,53.20
2023-03-15T09:54:49.668Z,53.76
2023-03-15T09:59:52.568Z,53.33
2023-03-15T10:05:12.919Z,49.56
2023-03-15T10:10:23.196Z,48.81
2023-03-15T10:15:39.190Z,46.86
2023-03-15T10:20:42.625Z,46.52
2023-03-15T10:25:44.288Z,48.23
2023-03-15T10:30:49.684Z,48.79
2023-03-15T10:35:54.117Z,49.12
2023-03-15T10:40:58.532Z,48.62
2023-03-15T10:46:09.848Z,49.31
2023-03-15T10:51:19.577Z,48.50
2023-03-15T10:56:28.650Z,49.07
2023-03-15T11:01:35.071Z,49.11
2023-03-15T11:07:03.145Z,48.09
2023-03-15T11:12:06.273Z,46.67
2023-03-15T11:17:11.632Z,45.58
2023-03-15T11:22:13.665Z,45.91
2023-03-15T11:27:16.482Z,45.27
2023-03-15T11:32:25.522Z,45.07
2023-03-15T11:37:29.448Z,44.48
2023-03-15T11:42:37.465Z,45.34
2023-03-15T11:47:51.656Z,43.81
2023-03-15T11:52:53.422Z,45.06
2023-03-15T11:57:56.686Z,42.05
2023-03-15T12:02:59.636Z,41.57
2023-03-15T12:08:19.748Z,38.68
2023-03-15T12:13:26.729Z,41.02
2023-03-15T12:18:33.409Z,41.05
2023-03-15T12:23:49.733Z,41.78
2023-03-15T12:29:07.985Z,41.13
2023-03-15T12:34:14.364Z,39.78
2023-03-15T12:39:15.674Z,40.05
2023-03-15T12:44:37.378Z,41.13
2023-03-15T12:49:39.629Z,41.64
2023-03-15T12:54:46.788Z,40.81
2023-03-15T12:59:55.756Z,42.08
2023-03-15T13:05:17.886Z,40.86
2023-03-15T13:10:30.273Z,41.03
2023-03-15T13:15:45.147Z,40.10
2023-03-15T13:20:57.206Z,40.05
2023-03-15T13:26:03.852Z,39.75
2023-03-15T13:31:21.897Z,42.23
2023-03-15T13:36:25.956Z,50.20
2023-03-15T13:41:29.141Z,49.23
2023-03-15T13:46:30.749Z,43.26
2023-03-15T13:51:33.947Z,37.70
2023-03-15T13:56:48.970Z,38.40
2023-03-15T14:01:54.041Z,39.34
2023-03-15T14:07:14.275Z,39.88
2023-03-15T14:12:19.987Z,40.40
2023-03-15T14:17:28.887Z,41.67
2023-03-15T14:22:30.339Z,40.62
2023-03-15T14:27:31.882Z,42.54
2023-03-15T14:32:35.139Z,41.39
2023-03-15T14:37:45.817Z,42.65
2023-03-15T14:42:47.760Z,41.88
2023-03-15T14:47:57.807Z,43.78
2023-03-15T14:52:59.466Z,43.17
2023-03-15T14:58:11.640Z,42.51
2023-03-15T15:03:23.271Z,42.50
2023-03-15T15:08:24.737Z,41.78
2023-03-15T15:13:27.526Z,41.74
2023-03-15T15:18:31.050Z,42.74
2023-03-15T15:23:33.209Z,40.41
2023-03-15T15:28:37.255Z,42.69
2023-03-15T15:33:38.964Z,41.63
2023-03-15T15:38:40.572Z,42.41
2023-03-15T15:43:43.007Z,45.74
2023-03-15T15:48:44.510Z,42.45
2023-03-15T15:53:45.961Z,43.07
2023-03-15T15:58:47.643Z,42.82
2023-03-15T16:03:49.124Z,41.84
2023-03-15T16:08:51.102Z,44.05
2023-03-15T16:13:53.928Z,43.05
2023-03-15T16:18:55.438Z,44.34
2023-03-15T16:24:16.196Z,42.40
2023-03-15T16:29:22.253Z,43.42
2023-03-15T16:34:24.454Z,44.25
2023-03-15T16:39:25.910Z,45.37
2023-03-15T16:44:27.439Z,42.93
2023-03-15T16:49:28.883Z,43.48
2023-03-15T16:54:40.596Z,43.35
2023-03-15T16:59:42.966Z,43.24
2023-03-15T17:04:44.602Z,44.82
2023-03-15T17:09:47.077Z,43.83
2023-03-15T17:14:48.720Z,45.28
2023-03-15T17:19:50.272Z,44.37
2023-03-15T17:24:51.794Z,43.59
2023-03-15T17:29:53.261Z,44.60
2023-03-15T17:34:58.853Z,46.78
2023-03-15T17:40:01.130Z,43.93
2023-03-15T17:45:04.686Z,42.70
2023-03-15T17:50:06.660Z,43.86
2023-03-15T17:55:14.330Z,43.70
2023-03-15T18:00:16.608Z,44.08
2023-03-15T18:05:22.894Z,44.68
2023-03-15T18:10:25.620Z,43.41
2023-03-15T18:15:27.096Z,43.80
2023-03-15T18:20:28.743Z,42.42
2023-03-15T18:25:31.500Z,42.76
2023-03-15T18:30:33.617Z,43.46
2023-03-15T18:35:35.803Z,46.64
2023-03-15T18:40:37.298Z,43.81
2023-03-15T18:45:38.803Z,43.26
2023-03-15T18:50:40.279Z,42.71
2023-03-15T18:55:41.932Z,43.17
2023-03-15T19:00:44.057Z,43.30
2023-03-15T19:05:45.584Z,43.05
2023-03-15T19:10:47.297Z,43.79
2023-03-15T19:15:48.766Z,44.32
2023-03-15T19:20:51.652Z,44.83
2023-03-15T19:25:53.134Z,45.32
2023-03-15T19:30:54.665Z,45.85
2023-03-15T19:35:56.233Z,44.77
2023-03-15T19:41:03.542Z,43.78
2023-03-15T19:46:08.128Z,45.69
2023-03-15T19:51:09.638Z,44.40
2023-03-15T19:56:11.444Z,43.98
2023-03-15T20:01:12.995Z,44.52
2023-03-15T20:06:14.506Z,44.92
2023-03-15T20:11:20.117Z,44.78
2023-03-15T20:16:22.272Z,45.87
2023-03-15T20:21:23.791Z,45.03
2023-03-15T20:26:25.334Z,45.08
2023-03-15T20:31:26.882Z,44.67
2023-03-15T20:36:28.578Z,44.40
2023-03-15T20:41:30.051Z,44.38
2023-03-15T20:46:31.520Z,45.20
2023-03-15T20:51:33.112Z,45.13
2023-03-15T20:56:34.637Z,45.73
2023-03-15T21:01:36.085Z,45.37
2023-03-15T21:06:37.558Z,46.77
2023-03-15T21:11:39.007Z,44.16
2023-03-15T21:16:41.020Z,44.86
2023-03-15T21:21:45.162Z,47.50
2023-03-15T21:26:48.554Z,45.58
2023-03-15T21:31:50.149Z,44.98
2023-03-15T21:36:51.683Z,46.60
2023-03-15T21:41:53.134Z,48.59
2023-03-15T21:46:55.179Z,46.43
2023-03-15T21:51:56.645Z,47.24
2023-03-15T21:56:58.153Z,47.12
2023-03-15T22:02:01.532Z,46.39
2023-03-15T22:07:02.997Z,46.06
2023-03-15T22:12:05.335Z,45.59
2023-03-15T22:17:06.840Z,45.29
2023-03-15T22:22:08.383Z,44.65
2023-03-15T22:27:09.854Z,46.00
2023-03-15T22:32:11.464Z,45.43
2023-03-15T22:37:13.239Z,45.71
2023-03-15T22:42:14.726Z,46.14
2023-03-15T22:47:16.786Z,46.97
2023-03-15T22:52:18.414Z,46.34
2023-03-15T22:57:19.862Z,46.09
2023-03-15T23:02:21.557Z,46.16
2023-03-15T23:07:23.007Z,46.12
2023-03-15T23:12:35.383Z,46.59
2023-03-15T23:17:37.510Z,47.48
2023-03-15T23:22:38.977Z,46.79
2023-03-15T23:27:40.752Z,47.19
2023-03-15T23:32:42.329Z,47.33
2023-03-15T23:37:43.861Z,49.18
2023-03-15T23:42:45.355Z,50.58
2023-03-15T23:47:46.818Z,51.13
2023-03-15T23:52:48.402Z,52.24
2023-03-15T23:57:49.891Z,52.77
